sensor_id;sensor_type;location;lat;lon;timestamp;pressure;altitude;pressure_sealevel;temperature;humidity
83444;BME280;73374;41.170;-96.156;2024-01-11T00:02:12;95569.84;;;-2.53;83.02
83444;BME280;73374;41.170;-96.156;2024-01-11T00:07:16;95571.28;;;-2.39;82.52
83444;BME280;73374;41.170;-96.156;2024-01-11T00:12:18;95577.34;;;-2.51;83.11
83444;BME280;73374;41.170;-96.156;2024-01-11T00:17:23;95582.66;;;-2.33;82.80
83444;BME280;73374;41.170;-96.156;2024-01-11T00:22:26;95601.97;;;-2.52;83.01
83444;BME280;73374;41.170;-96.156;2024-01-11T00:27:29;95619.38;;;-2.68;83.55
83444;BME280;73374;41.170;-96.156;2024-01-11T00:32:33;95634.72;;;-2.58;84.27
83444;BME280;73374;41.170;-96.156;2024-01-11T00:37:36;95637.69;;;-2.53;84.69
83444;BME280;73374;41.170;-96.156;2024-01-11T00:42:39;95645.19;;;-2.52;85.01
83444;BME280;73374;41.170;-96.156;2024-01-11T00:47:43;95657.91;;;-2.52;85.00
83444;BME280;73374;41.170;-96.156;2024-01-11T00:52:46;95658.28;;;-2.56;85.17
83444;BME280;73374;41.170;-96.156;2024-01-11T00:57:49;95670.34;;;-2.69;85.24
83444;BME280;73374;41.170;-96.156;2024-01-11T01:02:54;95673.78;;;-2.91;85.30
83444;BME280;73374;41.170;-96.156;2024-01-11T01:07:57;95680.72;;;-2.93;85.39
83444;BME280;73374;41.170;-96.156;2024-01-11T01:12:59;95684.91;;;-3.15;85.66
83444;BME280;73374;41.170;-96.156;2024-01-11T01:18:04;95701.31;;;-3.30;86.35
83444;BME280;73374;41.170;-96.156;2024-01-11T01:23:08;95682.06;;;-3.55;86.72
83444;BME280;73374;41.170;-96.156;2024-01-11T01:28:11;95711.38;;;-3.51;86.89
83444;BME280;73374;41.170;-96.156;2024-01-11T01:33:15;95711.59;;;-3.43;87.20
83444;BME280;73374;41.170;-96.156;2024-01-11T01:38:18;95698.09;;;-3.43;87.45
83444;BME280;73374;41.170;-96.156;2024-01-11T01:43:21;95721.53;;;-3.62;87.53
83444;BME280;73374;41.170;-96.156;2024-01-11T01:48:26;95746.06;;;-3.74;87.67
83444;BME280;73374;41.170;-96.156;2024-01-11T01:53:30;95735.59;;;-3.69;88.02
83444;BME280;73374;41.170;-96.156;2024-01-11T01:58:34;95748.03;;;-3.77;88.06
83444;BME280;73374;41.170;-96.156;2024-01-11T02:03:40;95751.50;;;-3.78;88.12
83444;BME280;73374;41.170;-96.156;2024-01-11T02:08:43;95753.53;;;-3.83;88.59
83444;BME280;73374;41.170;-96.156;2024-01-11T02:13:47;95775.13;;;-3.67;88.75
83444;BME280;73374;41.170;-96.156;2024-01-11T02:18:52;95776.78;;;-3.54;89.18
83444;BME280;73374;41.170;-96.156;2024-01-11T02:24:03;95793.78;;;-3.90;89.02
83444;BME280;73374;41.170;-96.156;2024-01-11T02:29:06;95801.00;;;-4.08;89.02
83444;BME280;73374;41.170;-96.156;2024-01-11T02:34:08;95807.34;;;-4.02;89.25
83444;BME280;73374;41.170;-96.156;2024-01-11T02:39:16;95818.66;;;-3.60;89.45
83444;BME280;73374;41.170;-96.156;2024-01-11T02:44:20;95834.59;;;-3.36;89.80
83444;BME280;73374;41.170;-96.156;2024-01-11T02:49:23;95857.72;;;-3.05;90.03
83444;BME280;73374;41.170;-96.156;2024-01-11T02:54:27;95883.59;;;-2.78;89.83
83444;BME280;73374;41.170;-96.156;2024-01-11T02:59:30;95857.19;;;-2.32;89.86
83444;BME280;73374;41.170;-96.156;2024-01-11T03:04:33;95885.97;;;-2.20;88.67
83444;BME280;73374;41.170;-96.156;2024-01-11T03:09:37;95878.47;;;-1.90;86.12
83444;BME280;73374;41.170;-96.156;2024-01-11T03:14:40;95874.25;;;-2.12;83.77
83444;BME280;73374;41.170;-96.156;2024-01-11T03:19:44;95872.63;;;-2.13;82.49
83444;BME280;73374;41.170;-96.156;2024-01-11T03:24:48;95877.41;;;-2.19;81.89
83444;BME280;73374;41.170;-96.156;2024-01-11T03:29:51;95898.81;;;-2.33;81.64
83444;BME280;73374;41.170;-96.156;2024-01-11T03:34:54;95919.97;;;-2.44;81.38
83444;BME280;73374;41.170;-96.156;2024-01-11T03:39:59;95918.81;;;-2.39;81.54
83444;BME280;73374;41.170;-96.156;2024-01-11T03:45:02;95920.69;;;-2.53;81.19
83444;BME280;73374;41.170;-96.156;2024-01-11T03:50:06;95932.69;;;-2.55;81.15
83444;BME280;73374;41.170;-96.156;2024-01-11T03:55:11;95943.69;;;-2.54;80.67
83444;BME280;73374;41.170;-96.156;2024-01-11T04:00:14;95959.50;;;-2.51;80.25
83444;BME280;73374;41.170;-96.156;2024-01-11T04:05:17;95937.78;;;-2.77;79.86
83444;BME280;73374;41.170;-96.156;2024-01-11T04:10:22;95997.97;;;-2.78;79.89
83444;BME280;73374;41.170;-96.156;2024-01-11T04:15:25;96001.84;;;-2.85;80.00
83444;BME280;73374;41.170;-96.156;2024-01-11T04:20:28;96000.56;;;-3.01;79.82
83444;BME280;73374;41.170;-96.156;2024-01-11T04:25:33;96002.16;;;-3.00;79.82
83444;BME280;73374;41.170;-96.156;2024-01-11T04:30:36;96028.44;;;-3.13;80.08
83444;BME280;73374;41.170;-96.156;2024-01-11T04:35:39;96051.06;;;-3.21;79.88
83444;BME280;73374;41.170;-96.156;2024-01-11T04:40:44;96057.59;;;-3.29;79.63
83444;BME280;73374;41.170;-96.156;2024-01-11T04:45:47;96046.00;;;-3.45;79.76
83444;BME280;73374;41.170;-96.156;2024-01-11T04:50:50;96057.69;;;-3.55;79.70
83444;BME280;73374;41.170;-96.156;2024-01-11T04:55:54;96073.28;;;-3.85;79.84
83444;BME280;73374;41.170;-96.156;2024-01-11T05:00:57;96093.47;;;-3.71;80.19
83444;BME280;73374;41.170;-96.156;2024-01-11T05:06:00;96116.63;;;-3.88;79.86
83444;BME280;73374;41.170;-96.156;2024-01-11T05:11:05;96139.88;;;-4.07;79.69
83444;BME280;73374;41.170;-96.156;2024-01-11T05:16:19;96138.66;;;-4.39;79.95
83444;BME280;73374;41.170;-96.156;2024-01-11T05:21:22;96149.19;;;-4.45;79.94
83444;BME280;73374;41.170;-96.156;2024-01-11T05:26:27;96156.38;;;-4.39;80.99
83444;BME280;73374;41.170;-96.156;2024-01-11T05:31:30;96158.06;;;-4.13;79.89
83444;BME280;73374;41.170;-96.156;2024-01-11T05:36:33;96171.13;;;-4.06;78.87
83444;BME280;73374;41.170;-96.156;2024-01-11T05:41:37;96183.78;;;-4.19;77.89
83444;BME280;73374;41.170;-96.156;2024-01-11T05:46:41;96182.56;;;-4.26;78.03
83444;BME280;73374;41.170;-96.156;2024-01-11T05:51:44;96187.25;;;-4.33;78.28
83444;BME280;73374;41.170;-96.156;2024-01-11T05:56:48;96185.38;;;-4.43;78.54
83444;BME280;73374;41.170;-96.156;2024-01-11T06:01:51;96205.91;;;-4.61;78.87
83444;BME280;73374;41.170;-96.156;2024-01-11T06:06:54;96221.28;;;-4.76;79.43
83444;BME280;73374;41.170;-96.156;2024-01-11T06:11:59;96240.53;;;-4.74;79.37
83444;BME280;73374;41.170;-96.156;2024-01-11T06:17:02;96241.28;;;-4.86;79.44
83444;BME280;73374;41.170;-96.156;2024-01-11T06:22:05;96222.78;;;-4.74;79.54
83444;BME280;73374;41.170;-96.156;2024-01-11T06:27:09;96221.00;;;-4.86;78.88
83444;BME280;73374;41.170;-96.156;2024-01-11T06:32:12;96204.59;;;-4.93;78.96
83444;BME280;73374;41.170;-96.156;2024-01-11T06:37:16;96208.16;;;-5.10;79.06
83444;BME280;73374;41.170;-96.156;2024-01-11T06:42:21;96217.50;;;-5.25;79.28
83444;BME280;73374;41.170;-96.156;2024-01-11T06:47:24;96244.53;;;-5.39;79.68
83444;BME280;73374;41.170;-96.156;2024-01-11T06:52:26;96251.88;;;-5.49;79.61
83444;BME280;73374;41.170;-96.156;2024-01-11T06:57:31;96262.97;;;-5.66;79.23
83444;BME280;73374;41.170;-96.156;2024-01-11T07:02:34;96268.72;;;-5.78;79.92
83444;BME280;73374;41.170;-96.156;2024-01-11T07:07:37;96283.53;;;-5.86;80.05
83444;BME280;73374;41.170;-96.156;2024-01-11T07:12:42;96297.81;;;-5.85;80.65
83444;BME280;73374;41.170;-96.156;2024-01-11T07:17:45;96310.25;;;-5.96;80.27
83444;BME280;73374;41.170;-96.156;2024-01-11T07:22:48;96311.53;;;-6.03;80.75
83444;BME280;73374;41.170;-96.156;2024-01-11T07:27:53;96309.13;;;-6.21;81.05
83444;BME280;73374;41.170;-96.156;2024-01-11T07:32:56;96302.81;;;-6.14;81.36
83444;BME280;73374;41.170;-96.156;2024-01-11T07:37:58;96299.09;;;-6.22;80.77
83444;BME280;73374;41.170;-96.156;2024-01-11T07:43:03;96313.94;;;-6.32;80.86
83444;BME280;73374;41.170;-96.156;2024-01-11T07:48:06;96324.22;;;-6.35;81.41
83444;BME280;73374;41.170;-96.156;2024-01-11T07:53:10;96339.63;;;-6.40;81.49
83444;BME280;73374;41.170;-96.156;2024-01-11T07:58:14;96357.47;;;-6.58;81.84
83444;BME280;73374;41.170;-96.156;2024-01-11T08:03:17;96372.28;;;-6.68;81.42
83444;BME280;73374;41.170;-96.156;2024-01-11T08:08:20;96376.50;;;-6.84;82.06
83444;BME280;73374;41.170;-96.156;2024-01-11T08:13:25;96378.41;;;-6.72;82.51
83444;BME280;73374;41.170;-96.156;2024-01-11T08:18:28;96371.78;;;-6.90;81.61
83444;BME280;73374;41.170;-96.156;2024-01-11T08:23:31;96370.53;;;-6.99;81.78
83444;BME280;73374;41.170;-96.156;2024-01-11T08:28:35;96372.25;;;-7.00;82.41
83444;BME280;73374;41.170;-96.156;2024-01-11T08:33:38;96385.31;;;-6.91;81.99
83444;BME280;73374;41.170;-96.156;2024-01-11T08:38:42;96385.25;;;-6.74;81.94
83444;BME280;73374;41.170;-96.156;2024-01-11T08:43:46;96417.81;;;-6.85;81.82
83444;BME280;73374;41.170;-96.156;2024-01-11T08:48:49;96465.50;;;-6.63;81.44
83444;BME280;73374;41.170;-96.156;2024-01-11T08:53:52;96464.06;;;-6.36;82.22
83444;BME280;73374;41.170;-96.156;2024-01-11T08:58:57;96496.69;;;-6.31;81.62
83444;BME280;73374;41.170;-96.156;2024-01-11T09:04:00;96523.94;;;-6.21;81.42
83444;BME280;73374;41.170;-96.156;2024-01-11T09:09:04;96530.94;;;-6.10;81.02
83444;BME280;73374;41.170;-96.156;2024-01-11T09:14:08;96525.88;;;-6.10;81.46
83444;BME280;73374;41.170;-96.156;2024-01-11T09:19:11;96526.69;;;-6.10;81.19
83444;BME280;73374;41.170;-96.156;2024-01-11T09:24:14;96522.97;;;-6.02;81.23
83444;BME280;73374;41.170;-96.156;2024-01-11T09:29:19;96531.13;;;-5.97;81.03
83444;BME280;73374;41.170;-96.156;2024-01-11T09:34:22;96538.53;;;-5.94;81.23
83444;BME280;73374;41.170;-96.156;2024-01-11T09:39:26;96527.44;;;-5.92;80.58
83444;BME280;73374;41.170;-96.156;2024-01-11T09:44:30;96517.75;;;-5.99;79.81
83444;BME280;73374;41.170;-96.156;2024-01-11T09:49:36;96531.69;;;-5.92;80.07
83444;BME280;73374;41.170;-96.156;2024-01-11T09:54:39;96518.22;;;-5.93;80.15
83444;BME280;73374;41.170;-96.156;2024-01-11T09:59:44;96439.59;;;-6.51;79.58
83444;BME280;73374;41.170;-96.156;2024-01-11T10:04:48;96528.75;;;-6.00;80.15
83444;BME280;73374;41.170;-96.156;2024-01-11T10:09:51;96522.63;;;-5.96;79.83
83444;BME280;73374;41.170;-96.156;2024-01-11T10:14:56;96546.28;;;-5.97;79.95
83444;BME280;73374;41.170;-96.156;2024-01-11T10:20:08;96559.59;;;-5.94;79.91
83444;BME280;73374;41.170;-96.156;2024-01-11T10:25:12;96571.41;;;-5.94;80.11
83444;BME280;73374;41.170;-96.156;2024-01-11T10:30:17;96562.94;;;-5.93;79.87
83444;BME280;73374;41.170;-96.156;2024-01-11T10:35:20;96580.94;;;-5.84;79.92
83444;BME280;73374;41.170;-96.156;2024-01-11T10:40:23;96590.91;;;-5.81;80.04
83444;BME280;73374;41.170;-96.156;2024-01-11T10:45:28;96599.78;;;-5.89;79.93
83444;BME280;73374;41.170;-96.156;2024-01-11T10:50:36;96615.38;;;-5.81;80.12
83444;BME280;73374;41.170;-96.156;2024-01-11T10:55:39;96627.69;;;-6.06;79.92
83444;BME280;73374;41.170;-96.156;2024-01-11T11:00:47;96621.22;;;-6.12;80.56
83444;BME280;73374;41.170;-96.156;2024-01-11T11:05:53;96612.56;;;-6.41;80.00
83444;BME280;73374;41.170;-96.156;2024-01-11T11:10:57;96611.22;;;-6.65;80.49
83444;BME280;73374;41.170;-96.156;2024-01-11T11:16:02;96615.63;;;-6.69;80.46
83444;BME280;73374;41.170;-96.156;2024-01-11T11:21:09;96626.63;;;-6.70;80.89
83444;BME280;73374;41.170;-96.156;2024-01-11T11:26:15;96611.47;;;-6.70;80.91
83444;BME280;73374;41.170;-96.156;2024-01-11T11:31:41;96635.16;;;-6.90;80.13
83444;BME280;73374;41.170;-96.156;2024-01-11T11:36:46;96634.03;;;-6.84;80.22
83444;BME280;73374;41.170;-96.156;2024-01-11T11:41:49;96637.22;;;-6.81;80.02
83444;BME280;73374;41.170;-96.156;2024-01-11T11:46:54;96637.38;;;-6.84;80.10
83444;BME280;73374;41.170;-96.156;2024-01-11T11:51:57;96599.50;;;-7.01;79.73
83444;BME280;73374;41.170;-96.156;2024-01-11T11:57:00;96616.72;;;-6.92;80.07
83444;BME280;73374;41.170;-96.156;2024-01-11T12:02:06;96620.72;;;-7.05;78.87
83444;BME280;73374;41.170;-96.156;2024-01-11T12:07:14;96626.00;;;-7.10;79.37
83444;BME280;73374;41.170;-96.156;2024-01-11T12:12:18;96624.31;;;-7.28;79.37
83444;BME280;73374;41.170;-96.156;2024-01-11T12:17:22;96653.72;;;-7.27;79.71
83444;BME280;73374;41.170;-96.156;2024-01-11T12:22:26;96672.44;;;-7.33;80.54
83444;BME280;73374;41.170;-96.156;2024-01-11T12:27:29;96690.91;;;-7.51;80.14
83444;BME280;73374;41.170;-96.156;2024-01-11T12:32:35;96701.44;;;-7.60;80.42
83444;BME280;73374;41.170;-96.156;2024-01-11T12:37:38;96714.47;;;-7.71;80.92
83444;BME280;73374;41.170;-96.156;2024-01-11T12:42:42;96724.13;;;-7.60;80.00
83444;BME280;73374;41.170;-96.156;2024-01-11T12:47:47;96721.16;;;-7.70;78.96
83444;BME280;73374;41.170;-96.156;2024-01-11T12:53:05;96713.97;;;-8.38;77.75
83444;BME280;73374;41.170;-96.156;2024-01-11T12:58:09;96739.47;;;-8.46;78.23
83444;BME280;73374;41.170;-96.156;2024-01-11T13:03:13;96778.84;;;-9.10;77.67
83444;BME280;73374;41.170;-96.156;2024-01-11T13:08:16;96802.72;;;-9.69;75.32
83444;BME280;73374;41.170;-96.156;2024-01-11T13:13:22;96792.91;;;-9.77;73.92
83444;BME280;73374;41.170;-96.156;2024-01-11T13:18:30;96768.75;;;-10.30;73.08
83444;BME280;73374;41.170;-96.156;2024-01-11T13:23:33;96763.25;;;-10.42;73.12
83444;BME280;73374;41.170;-96.156;2024-01-11T13:28:36;96773.56;;;-10.49;73.22
83444;BME280;73374;41.170;-96.156;2024-01-11T13:33:41;96786.34;;;-10.57;72.87
83444;BME280;73374;41.170;-96.156;2024-01-11T13:38:44;96784.66;;;-10.84;73.27
83444;BME280;73374;41.170;-96.156;2024-01-11T13:43:47;96760.28;;;-10.81;73.39
83444;BME280;73374;41.170;-96.156;2024-01-11T13:48:51;96779.97;;;-10.67;72.87
83444;BME280;73374;41.170;-96.156;2024-01-11T13:53:55;96765.19;;;-10.50;72.12
83444;BME280;73374;41.170;-96.156;2024-01-11T13:58:58;96774.63;;;-10.84;72.05
83444;BME280;73374;41.170;-96.156;2024-01-11T14:04:02;96799.13;;;-10.65;73.13
83444;BME280;73374;41.170;-96.156;2024-01-11T14:09:05;96787.78;;;-10.50;71.83
83444;BME280;73374;41.170;-96.156;2024-01-11T14:14:09;96799.75;;;-10.31;71.15
83444;BME280;73374;41.170;-96.156;2024-01-11T14:19:13;96827.06;;;-10.49;71.74
83444;BME280;73374;41.170;-96.156;2024-01-11T14:24:17;96839.44;;;-10.43;70.34
83444;BME280;73374;41.170;-96.156;2024-01-11T14:29:31;96855.75;;;-10.03;69.62
83444;BME280;73374;41.170;-96.156;2024-01-11T14:34:35;96865.66;;;-10.25;69.09
83444;BME280;73374;41.170;-96.156;2024-01-11T14:39:39;96847.13;;;-10.21;69.13
83444;BME280;73374;41.170;-96.156;2024-01-11T14:44:42;96869.66;;;-10.19;68.23
83444;BME280;73374;41.170;-96.156;2024-01-11T14:49:47;96872.72;;;-10.36;68.44
83444;BME280;73374;41.170;-96.156;2024-01-11T14:54:50;96885.28;;;-10.11;67.13
83444;BME280;73374;41.170;-96.156;2024-01-11T14:59:53;96909.25;;;-9.75;65.74
83444;BME280;73374;41.170;-96.156;2024-01-11T15:04:57;96906.38;;;-9.13;64.03
83444;BME280;73374;41.170;-96.156;2024-01-11T15:10:00;96902.31;;;-9.66;62.38
83444;BME280;73374;41.170;-96.156;2024-01-11T15:15:04;96924.72;;;-8.86;61.03
83444;BME280;73374;41.170;-96.156;2024-01-11T15:20:10;96959.47;;;-8.72;60.97
83444;BME280;73374;41.170;-96.156;2024-01-11T15:25:13;96976.59;;;-7.90;56.47
83444;BME280;73374;41.170;-96.156;2024-01-11T15:30:17;96985.69;;;-6.81;52.13
83444;BME280;73374;41.170;-96.156;2024-01-11T15:35:22;96960.47;;;-5.16;49.66
83444;BME280;73374;41.170;-96.156;2024-01-11T15:40:25;96964.00;;;-4.04;45.22
83444;BME280;73374;41.170;-96.156;2024-01-11T15:45:28;96952.25;;;-2.69;41.45
83444;BME280;73374;41.170;-96.156;2024-01-11T15:50:34;96961.59;;;-1.17;39.03
83444;BME280;73374;41.170;-96.156;2024-01-11T15:55:37;97025.69;;;-0.84;36.98
83444;BME280;73374;41.170;-96.156;2024-01-11T16:00:40;97034.75;;;-0.15;35.32
83444;BME280;73374;41.170;-96.156;2024-01-11T16:05:45;97014.41;;;2.85;31.81
83444;BME280;73374;41.170;-96.156;2024-01-11T16:10:48;97007.13;;;3.64;28.69
83444;BME280;73374;41.170;-96.156;2024-01-11T16:15:51;96992.22;;;0.94;32.76
83444;BME280;73374;41.170;-96.156;2024-01-11T16:20:56;97029.75;;;-2.03;36.32
83444;BME280;73374;41.170;-96.156;2024-01-11T16:25:59;97050.84;;;0.60;33.61
83444;BME280;73374;41.170;-96.156;2024-01-11T16:31:03;97043.09;;;2.79;30.75
83444;BME280;73374;41.170;-96.156;2024-01-11T16:36:08;97032.03;;;4.74;28.08
83444;BME280;73374;41.170;-96.156;2024-01-11T16:41:11;97032.59;;;4.28;26.89
83444;BME280;73374;41.170;-96.156;2024-01-11T16:46:18;97004.69;;;4.23;29.11
83444;BME280;73374;41.170;-96.156;2024-01-11T16:51:26;96993.28;;;5.53;26.10
83444;BME280;73374;41.170;-96.156;2024-01-11T16:56:29;96982.81;;;3.99;26.79
83444;BME280;73374;41.170;-96.156;2024-01-11T17:01:33;96960.78;;;3.03;29.22
83444;BME280;73374;41.170;-96.156;2024-01-11T17:06:38;96959.66;;;2.96;29.23
83444;BME280;73374;41.170;-96.156;2024-01-11T17:11:41;97008.72;;;0.17;31.63
83444;BME280;73374;41.170;-96.156;2024-01-11T17:16:45;97013.16;;;4.45;27.48
83444;BME280;73374;41.170;-96.156;2024-01-11T17:21:50;97012.59;;;1.42;30.46
83444;BME280;73374;41.170;-96.156;2024-01-11T17:26:53;97024.72;;;-0.05;32.72
83444;BME280;73374;41.170;-96.156;2024-01-11T17:31:57;97033.16;;;-0.81;34.83
83444;BME280;73374;41.170;-96.156;2024-01-11T17:37:02;97035.81;;;-2.93;37.39
83444;BME280;73374;41.170;-96.156;2024-01-11T17:42:08;97046.13;;;-1.38;36.22
83444;BME280;73374;41.170;-96.156;2024-01-11T17:47:11;97047.47;;;-1.73;36.66
83444;BME280;73374;41.170;-96.156;2024-01-11T17:52:17;97059.09;;;-3.00;39.23
83444;BME280;73374;41.170;-96.156;2024-01-11T17:57:21;97076.50;;;-2.49;38.78
83444;BME280;73374;41.170;-96.156;2024-01-11T18:02:24;97085.03;;;-3.10;40.36
83444;BME280;73374;41.170;-96.156;2024-01-11T18:07:30;97100.00;;;-2.89;40.80
83444;BME280;73374;41.170;-96.156;2024-01-11T18:12:33;97072.44;;;-4.58;41.04
83444;BME280;73374;41.170;-96.156;2024-01-11T18:17:36;97099.63;;;-4.27;42.21
83444;BME280;73374;41.170;-96.156;2024-01-11T18:22:41;97078.69;;;-4.47;44.00
83444;BME280;73374;41.170;-96.156;2024-01-11T18:27:45;97076.91;;;-4.63;44.52
83444;BME280;73374;41.170;-96.156;2024-01-11T18:32:48;97056.16;;;-4.88;44.48
83444;BME280;73374;41.170;-96.156;2024-01-11T18:37:54;97029.88;;;-5.20;45.02
83444;BME280;73374;41.170;-96.156;2024-01-11T18:42:57;97013.22;;;-5.43;44.29
83444;BME280;73374;41.170;-96.156;2024-01-11T18:48:00;97015.53;;;-5.74;45.95
83444;BME280;73374;41.170;-96.156;2024-01-11T18:53:06;97001.34;;;-5.06;44.86
83444;BME280;73374;41.170;-96.156;2024-01-11T18:58:09;96985.19;;;-4.20;43.29
83444;BME280;73374;41.170;-96.156;2024-01-11T19:03:12;96994.28;;;-3.85;42.55
83444;BME280;73374;41.170;-96.156;2024-01-11T19:08:18;96982.38;;;-5.15;46.21
83444;BME280;73374;41.170;-96.156;2024-01-11T19:13:21;96957.63;;;-5.10;45.02
83444;BME280;73374;41.170;-96.156;2024-01-11T19:18:25;96929.84;;;-5.29;46.64
83444;BME280;73374;41.170;-96.156;2024-01-11T19:23:30;96918.22;;;-6.40;47.28
83444;BME280;73374;41.170;-96.156;2024-01-11T19:28:33;96913.59;;;-3.78;48.11
83444;BME280;73374;41.170;-96.156;2024-01-11T19:33:37;96920.84;;;-5.69;48.38
83444;BME280;73374;41.170;-96.156;2024-01-11T19:38:42;96915.28;;;-4.91;46.16
83444;BME280;73374;41.170;-96.156;2024-01-11T19:43:45;96897.44;;;-4.72;44.47
83444;BME280;73374;41.170;-96.156;2024-01-11T19:48:49;96892.88;;;-5.49;46.38
83444;BME280;73374;41.170;-96.156;2024-01-11T19:53:54;96872.31;;;-4.28;45.26
83444;BME280;73374;41.170;-96.156;2024-01-11T19:58:58;96860.72;;;-3.86;43.67
83444;BME280;73374;41.170;-96.156;2024-01-11T20:04:01;96869.03;;;-4.94;48.92
83444;BME280;73374;41.170;-96.156;2024-01-11T20:09:06;96883.63;;;-5.32;46.63
83444;BME280;73374;41.170;-96.156;2024-01-11T20:14:09;96889.28;;;-5.44;47.11
83444;BME280;73374;41.170;-96.156;2024-01-11T20:19:13;96861.94;;;-6.43;48.64
83444;BME280;73374;41.170;-96.156;2024-01-11T20:24:18;96858.84;;;-5.78;47.74
83444;BME280;73374;41.170;-96.156;2024-01-11T20:29:22;96834.44;;;-5.79;49.00
83444;BME280;73374;41.170;-96.156;2024-01-11T20:34:27;96838.06;;;-7.11;50.81
83444;BME280;73374;41.170;-96.156;2024-01-11T20:39:32;96828.81;;;-6.37;51.80
83444;BME280;73374;41.170;-96.156;2024-01-11T20:44:36;96826.88;;;-7.06;51.64
83444;BME280;73374;41.170;-96.156;2024-01-11T20:49:39;96830.72;;;-6.59;50.95
83444;BME280;73374;41.170;-96.156;2024-01-11T20:54:44;96814.94;;;-7.41;53.05
83444;BME280;73374;41.170;-96.156;2024-01-11T20:59:49;96803.50;;;-7.30;55.78
83444;BME280;73374;41.170;-96.156;2024-01-11T21:04:53;96814.16;;;-7.23;53.61
83444;BME280;73374;41.170;-96.156;2024-01-11T21:09:58;96809.81;;;-8.21;54.22
83444;BME280;73374;41.170;-96.156;2024-01-11T21:15:01;96850.28;;;-8.04;54.19
83444;BME280;73374;41.170;-96.156;2024-01-11T21:20:06;96875.09;;;-9.05;56.10
83444;BME280;73374;41.170;-96.156;2024-01-11T21:25:11;96888.44;;;-8.57;56.29
83444;BME280;73374;41.170;-96.156;2024-01-11T21:30:14;96883.88;;;-8.25;54.91
83444;BME280;73374;41.170;-96.156;2024-01-11T21:35:18;96909.03;;;-8.92;56.74
83444;BME280;73374;41.170;-96.156;2024-01-11T21:40:23;96920.31;;;-8.79;57.63
83444;BME280;73374;41.170;-96.156;2024-01-11T21:45:26;96900.84;;;-9.74;59.13
83444;BME280;73374;41.170;-96.156;2024-01-11T21:50:29;96860.75;;;-9.27;59.00
83444;BME280;73374;41.170;-96.156;2024-01-11T21:55:34;96847.84;;;-9.92;61.04
83444;BME280;73374;41.170;-96.156;2024-01-11T22:00:37;96865.13;;;-10.35;61.45
83444;BME280;73374;41.170;-96.156;2024-01-11T22:05:40;96873.81;;;-10.18;62.70
83444;BME280;73374;41.170;-96.156;2024-01-11T22:10:46;96843.50;;;-10.39;62.88
83444;BME280;73374;41.170;-96.156;2024-01-11T22:15:49;96877.13;;;-10.44;62.59
83444;BME280;73374;41.170;-96.156;2024-01-11T22:20:52;96891.56;;;-10.80;62.82
83444;BME280;73374;41.170;-96.156;2024-01-11T22:25:56;96902.56;;;-10.55;62.73
83444;BME280;73374;41.170;-96.156;2024-01-11T22:30:59;96898.44;;;-10.57;63.49
83444;BME280;73374;41.170;-96.156;2024-01-11T22:36:03;96915.34;;;-10.64;63.27
83444;BME280;73374;41.170;-96.156;2024-01-11T22:41:07;96906.91;;;-10.61;63.87
83444;BME280;73374;41.170;-96.156;2024-01-11T22:46:11;96919.00;;;-10.74;63.72
83444;BME280;73374;41.170;-96.156;2024-01-11T22:51:14;96859.44;;;-10.68;63.83
83444;BME280;73374;41.170;-96.156;2024-01-11T22:56:18;96898.22;;;-10.79;64.10
83444;BME280;73374;41.170;-96.156;2024-01-11T23:01:21;96929.91;;;-10.75;64.56
83444;BME280;73374;41.170;-96.156;2024-01-11T23:06:24;96899.84;;;-10.78;64.57
83444;BME280;73374;41.170;-96.156;2024-01-11T23:11:29;96887.53;;;-10.86;64.78
83444;BME280;73374;41.170;-96.156;2024-01-11T23:16:32;96887.25;;;-10.75;64.75
83444;BME280;73374;41.170;-96.156;2024-01-11T23:21:35;96882.56;;;-10.87;65.85
83444;BME280;73374;41.170;-96.156;2024-01-11T23:26:40;96861.75;;;-11.20;66.49
83444;BME280;73374;41.170;-96.156;2024-01-11T23:31:43;96841.53;;;-11.14;66.43
83444;BME280;73374;41.170;-96.156;2024-01-11T23:36:49;96857.09;;;-10.74;66.22
83444;BME280;73374;41.170;-96.156;2024-01-11T23:41:54;96889.94;;;-11.12;65.80
83444;BME280;73374;41.170;-96.156;2024-01-11T23:46:57;96845.94;;;-11.22;65.67
83444;BME280;73374;41.170;-96.156;2024-01-11T23:52:00;96874.66;;;-11.34;65.73
83444;BME280;73374;41.170;-96.156;2024-01-11T23:57:05;96918.97;;;-11.04;65.84
